E98 weather

Mid Valley Airpark
Los Lunas, New Mexico, United States

Public forecast

Using degrees Fahrenheit for public forecast. Weather courtesy of forecast.io.

Closest aviation weather report (METAR) to Mid Valley Airpark

Closest report is Belen Regional Airport, 8.2 nm (15.1 km) SSW. Retrieved 2020/02/20 04:35 UTC (0 seconds ago):

KBRG 200435Z AUTO 16005KT 10SM BKN120 07/01 A3014 RMK AO2 T00710005

Closest aviation forecast (TAF) to Mid Valley Airpark

Closest forecast is Albuquerque International Sunport, 18.1 nm (33.6 km) NNE. Retrieved 2020-02-20 00:40 UTC (4 hours ago):

TAF KABQ 192338Z 2000/2024 20009KT P6SM SCT110 FM200700 07008KT P6SM FEW100 FM200900 07012G22KT P6SM FEW050 FM201300 08023G35KT P6SM SCT050 FM202000 09015G25KT P6SM SCT050